sensor_id;sensor_type;location;lat;lon;timestamp;pressure;altitude;pressure_sealevel;temperature;humidity
14800;BME280;7491;57.750;11.970;2023-05-19T00:01:51;77597.03;;;-142.11;100.00
14800;BME280;7491;57.750;11.970;2023-05-19T00:04:19;77603.16;;;-142.11;100.00
14800;BME280;7491;57.750;11.970;2023-05-19T00:06:49;77605.19;;;-142.11;100.00
14800;BME280;7491;57.750;11.970;2023-05-19T00:09:16;77607.22;;;-142.11;100.00
14800;BME280;7491;57.750;11.970;2023-05-19T00:11:45;77607.22;;;-142.11;100.00
14800;BME280;7491;57.750;11.970;2023-05-19T00:14:12;77605.19;;;-142.11;100.00
14800;BME280;7491;57.750;11.970;2023-05-19T00:16:40;77607.22;;;-142.11;100.00
14800;BME280;7491;57.750;11.970;2023-05-19T00:19:07;77607.22;;;-142.11;100.00
14800;BME280;7491;57.750;11.970;2023-05-19T00:21:35;77607.22;;;-142.11;100.00
14800;BME280;7491;57.750;11.970;2023-05-19T00:24:03;77615.38;;;-142.11;100.00
14800;BME280;7491;57.750;11.970;2023-05-19T00:26:30;77611.31;;;-142.11;100.00
14800;BME280;7491;57.750;11.970;2023-05-19T00:28:58;77619.47;;;-142.11;100.00
14800;BME280;7491;57.750;11.970;2023-05-19T00:31:25;77623.53;;;-142.11;100.00
14800;BME280;7491;57.750;11.970;2023-05-19T00:33:52;77633.75;;;-142.11;100.00
14800;BME280;7491;57.750;11.970;2023-05-19T00:36:19;77625.59;;;-142.11;100.00
14800;BME280;7491;57.750;11.970;2023-05-19T00:38:45;77639.88;;;-142.11;100.00
14800;BME280;7491;57.750;11.970;2023-05-19T00:41:12;77664.34;;;-142.11;100.00
14800;BME280;7491;57.750;11.970;2023-05-19T00:43:38;77666.38;;;-142.11;100.00
14800;BME280;7491;57.750;11.970;2023-05-19T00:46:07;77664.34;;;-142.11;100.00
14800;BME280;7491;57.750;11.970;2023-05-19T00:48:35;77672.50;;;-142.11;100.00
14800;BME280;7491;57.750;11.970;2023-05-19T00:51:02;77672.50;;;-142.11;100.00
14800;BME280;7491;57.750;11.970;2023-05-19T00:53:31;77701.03;;;-142.11;100.00
14800;BME280;7491;57.750;11.970;2023-05-19T00:55:59;77692.88;;;-142.11;100.00
14800;BME280;7491;57.750;11.970;2023-05-19T00:58:26;77701.03;;;-142.11;100.00
14800;BME280;7491;57.750;11.970;2023-05-19T01:00:54;77701.03;;;-142.11;100.00
14800;BME280;7491;57.750;11.970;2023-05-19T01:03:29;77701.03;;;-142.11;100.00
14800;BME280;7491;57.750;11.970;2023-05-19T01:05:56;77696.97;;;-142.11;100.00
14800;BME280;7491;57.750;11.970;2023-05-19T01:08:26;77713.28;;;-142.11;100.00
14800;BME280;7491;57.750;11.970;2023-05-19T01:10:53;77717.34;;;-142.11;100.00
14800;BME280;7491;57.750;11.970;2023-05-19T01:13:19;77719.41;;;-142.11;100.00
14800;BME280;7491;57.750;11.970;2023-05-19T01:16:01;77707.16;;;-142.11;100.00
14800;BME280;7491;57.750;11.970;2023-05-19T01:18:42;77701.03;;;-142.11;100.00
14800;BME280;7491;57.750;11.970;2023-05-19T01:24:22;77745.91;;;-142.11;100.00
14800;BME280;7491;57.750;11.970;2023-05-19T01:27:12;77735.72;;;-142.11;100.00
14800;BME280;7491;57.750;11.970;2023-05-19T01:30:05;77745.91;;;-142.11;100.00
14800;BME280;7491;57.750;11.970;2023-05-19T01:32:33;77758.16;;;-142.11;100.00
14800;BME280;7491;57.750;11.970;2023-05-19T01:35:01;77758.16;;;-142.11;100.00
14800;BME280;7491;57.750;11.970;2023-05-19T01:37:29;77752.03;;;-142.11;100.00
14800;BME280;7491;57.750;11.970;2023-05-19T01:39:57;77774.47;;;-142.11;100.00
14800;BME280;7491;57.750;11.970;2023-05-19T01:42:24;77774.47;;;-142.11;100.00
14800;BME280;7491;57.750;11.970;2023-05-19T01:44:52;77770.38;;;-142.11;100.00
14800;BME280;7491;57.750;11.970;2023-05-19T01:47:21;77786.69;;;-142.11;100.00
14800;BME280;7491;57.750;11.970;2023-05-19T01:49:47;77794.84;;;-142.11;100.00
14800;BME280;7491;57.750;11.970;2023-05-19T01:52:14;77813.22;;;-142.11;100.00
14800;BME280;7491;57.750;11.970;2023-05-19T01:54:41;77805.06;;;-142.11;100.00
14800;BME280;7491;57.750;11.970;2023-05-19T01:57:15;77813.22;;;-142.11;100.00
14800;BME280;7491;57.750;11.970;2023-05-19T01:59:51;77790.78;;;-142.11;100.00
14800;BME280;7491;57.750;11.970;2023-05-19T02:02:25;77788.75;;;-142.11;100.00
14800;BME280;7491;57.750;11.970;2023-05-19T02:04:58;77790.78;;;-142.11;100.00
14800;BME280;7491;57.750;11.970;2023-05-19T02:07:33;77813.22;;;-142.11;100.00
14800;BME280;7491;57.750;11.970;2023-05-19T02:10:04;77809.13;;;-142.11;100.00
14800;BME280;7491;57.750;11.970;2023-05-19T02:12:33;77819.34;;;-142.11;100.00
14800;BME280;7491;57.750;11.970;2023-05-19T02:15:04;77809.13;;;-142.11;100.00
14800;BME280;7491;57.750;11.970;2023-05-19T02:17:34;77827.50;;;-142.11;100.00
14800;BME280;7491;57.750;11.970;2023-05-19T02:20:01;77823.41;;;-142.11;100.00
14800;BME280;7491;57.750;11.970;2023-05-19T02:22:28;77819.34;;;-142.11;100.00
14800;BME280;7491;57.750;11.970;2023-05-19T02:24:55;77827.50;;;-142.11;100.00
14800;BME280;7491;57.750;11.970;2023-05-19T02:27:22;77835.66;;;-142.11;100.00
14800;BME280;7491;57.750;11.970;2023-05-19T02:29:48;77829.53;;;-142.11;100.00
14800;BME280;7491;57.750;11.970;2023-05-19T02:32:16;77831.56;;;-142.11;100.00
14800;BME280;7491;57.750;11.970;2023-05-19T02:34:44;77837.69;;;-142.11;100.00
14800;BME280;7491;57.750;11.970;2023-05-19T02:37:11;77835.66;;;-142.11;100.00
14800;BME280;7491;57.750;11.970;2023-05-19T02:39:38;77849.91;;;-142.11;100.00
14800;BME280;7491;57.750;11.970;2023-05-19T02:42:05;77847.88;;;-142.11;100.00
14800;BME280;7491;57.750;11.970;2023-05-19T02:44:31;77847.88;;;-142.11;100.00
14800;BME280;7491;57.750;11.970;2023-05-19T02:46:58;77851.97;;;-142.11;100.00
14800;BME280;7491;57.750;11.970;2023-05-19T02:49:25;77862.16;;;-142.11;100.00
14800;BME280;7491;57.750;11.970;2023-05-19T02:51:53;77860.13;;;-142.11;100.00
14800;BME280;7491;57.750;11.970;2023-05-19T02:54:19;77864.19;;;-142.11;100.00
14800;BME280;7491;57.750;11.970;2023-05-19T02:56:46;77872.34;;;-142.11;100.00
14800;BME280;7491;57.750;11.970;2023-05-19T02:59:13;77868.28;;;-142.11;100.00
14800;BME280;7491;57.750;11.970;2023-05-19T03:01:39;77845.84;;;-142.11;100.00
14800;BME280;7491;57.750;11.970;2023-05-19T03:04:06;77843.81;;;-142.11;100.00
14800;BME280;7491;57.750;11.970;2023-05-19T03:06:33;77839.72;;;-142.11;100.00
14800;BME280;7491;57.750;11.970;2023-05-19T03:09:02;77839.72;;;-142.11;100.00
14800;BME280;7491;57.750;11.970;2023-05-19T03:11:28;77860.13;;;-142.11;100.00
14800;BME280;7491;57.750;11.970;2023-05-19T03:13:55;77868.28;;;-142.11;100.00
14800;BME280;7491;57.750;11.970;2023-05-19T03:16:22;77854.00;;;-142.11;100.00
14800;BME280;7491;57.750;11.970;2023-05-19T03:18:49;77845.84;;;-142.11;100.00
14800;BME280;7491;57.750;11.970;2023-05-19T03:21:16;77835.66;;;-142.11;100.00
14800;BME280;7491;57.750;11.970;2023-05-19T03:23:43;77839.72;;;-142.11;100.00
14800;BME280;7491;57.750;11.970;2023-05-19T03:26:11;77837.69;;;-142.11;100.00
14800;BME280;7491;57.750;11.970;2023-05-19T03:28:38;77835.66;;;-142.11;100.00
14800;BME280;7491;57.750;11.970;2023-05-19T03:31:04;77841.75;;;-142.11;100.00
14800;BME280;7491;57.750;11.970;2023-05-19T03:33:31;77831.56;;;-142.11;100.00
14800;BME280;7491;57.750;11.970;2023-05-19T03:35:57;77847.88;;;-142.11;100.00
14800;BME280;7491;57.750;11.970;2023-05-19T03:38:24;77845.84;;;-142.11;100.00
14800;BME280;7491;57.750;11.970;2023-05-19T03:40:51;77841.75;;;-142.11;100.00
14800;BME280;7491;57.750;11.970;2023-05-19T03:43:19;77841.75;;;-142.11;100.00
14800;BME280;7491;57.750;11.970;2023-05-19T03:45:45;77837.69;;;-142.11;100.00
14800;BME280;7491;57.750;11.970;2023-05-19T03:48:12;77843.81;;;-142.11;100.00
14800;BME280;7491;57.750;11.970;2023-05-19T03:50:40;77833.59;;;-142.11;100.00
14800;BME280;7491;57.750;11.970;2023-05-19T03:53:08;77825.44;;;-142.11;100.00
14800;BME280;7491;57.750;11.970;2023-05-19T03:55:35;77825.44;;;-142.11;100.00
14800;BME280;7491;57.750;11.970;2023-05-19T03:58:02;77817.28;;;-142.11;100.00
14800;BME280;7491;57.750;11.970;2023-05-19T04:00:30;77813.22;;;-142.11;100.00
14800;BME280;7491;57.750;11.970;2023-05-19T04:02:57;77809.13;;;-142.11;100.00
14800;BME280;7491;57.750;11.970;2023-05-19T04:05:24;77798.94;;;-142.11;100.00
14800;BME280;7491;57.750;11.970;2023-05-19T04:07:51;77780.59;;;-142.11;100.00
14800;BME280;7491;57.750;11.970;2023-05-19T04:10:18;77772.41;;;-142.11;100.00
14800;BME280;7491;57.750;11.970;2023-05-19T04:12:44;77756.09;;;-142.11;100.00
14800;BME280;7491;57.750;11.970;2023-05-19T04:15:12;77750.00;;;-142.11;100.00
14800;BME280;7491;57.750;11.970;2023-05-19T04:17:40;77739.78;;;-142.11;100.00
14800;BME280;7491;57.750;11.970;2023-05-19T04:20:08;77733.66;;;-142.11;100.00
14800;BME280;7491;57.750;11.970;2023-05-19T04:22:35;77727.56;;;-142.11;100.00
14800;BME280;7491;57.750;11.970;2023-05-19T04:25:01;77705.13;;;-142.11;100.00
14800;BME280;7491;57.750;11.970;2023-05-19T04:27:29;77680.66;;;-142.11;100.00
14800;BME280;7491;57.750;11.970;2023-05-19T04:29:56;77678.59;;;-142.11;100.00
14800;BME280;7491;57.750;11.970;2023-05-19T04:32:23;77658.22;;;-142.11;100.00
14800;BME280;7491;57.750;11.970;2023-05-19T04:34:53;77639.88;;;-142.11;100.00
14800;BME280;7491;57.750;11.970;2023-05-19T04:37:20;77627.63;;;-142.11;100.00
14800;BME280;7491;57.750;11.970;2023-05-19T04:39:47;77592.94;;;-142.11;100.00
14800;BME280;7491;57.750;11.970;2023-05-19T04:42:13;77597.03;;;-142.11;100.00
14800;BME280;7491;57.750;11.970;2023-05-19T04:44:43;77584.78;;;-142.11;100.00
14800;BME280;7491;57.750;11.970;2023-05-19T04:47:10;77584.78;;;-142.11;100.00
14800;BME280;7491;57.750;11.970;2023-05-19T04:49:39;77574.59;;;-142.11;100.00
14800;BME280;7491;57.750;11.970;2023-05-19T04:52:09;77568.47;;;-142.11;100.00
14800;BME280;7491;57.750;11.970;2023-05-19T04:54:37;77558.28;;;-142.11;100.00
14800;BME280;7491;57.750;11.970;2023-05-19T04:57:04;77537.91;;;-142.11;100.00
14800;BME280;7491;57.750;11.970;2023-05-19T04:59:31;77529.72;;;-142.11;100.00
14800;BME280;7491;57.750;11.970;2023-05-19T05:01:58;77523.63;;;-142.11;100.00
14800;BME280;7491;57.750;11.970;2023-05-19T05:04:25;77501.19;;;-142.11;100.00
14800;BME280;7491;57.750;11.970;2023-05-19T05:06:51;77486.91;;;-142.11;100.00
14800;BME280;7491;57.750;11.970;2023-05-19T05:09:19;77462.44;;;-142.11;100.00
14800;BME280;7491;57.750;11.970;2023-05-19T05:11:47;77448.16;;;-142.11;100.00
14800;BME280;7491;57.750;11.970;2023-05-19T05:14:14;77440.00;;;-142.11;100.00
14800;BME280;7491;57.750;11.970;2023-05-19T05:16:41;77415.53;;;-142.11;100.00
14800;BME280;7491;57.750;11.970;2023-05-19T05:19:08;77419.63;;;-142.11;100.00
14800;BME280;7491;57.750;11.970;2023-05-19T05:21:36;77401.25;;;-142.11;100.00
14800;BME280;7491;57.750;11.970;2023-05-19T05:24:03;77393.09;;;-142.11;100.00
14800;BME280;7491;57.750;11.970;2023-05-19T05:26:32;77376.78;;;-142.11;100.00
14800;BME280;7491;57.750;11.970;2023-05-19T05:29:10;77364.56;;;-142.11;100.00
14800;BME280;7491;57.750;11.970;2023-05-19T05:31:42;77348.25;;;-142.11;100.00
14800;BME280;7491;57.750;11.970;2023-05-19T05:34:30;77327.84;;;-142.11;100.00
14800;BME280;7491;57.750;11.970;2023-05-19T05:37:21;77305.41;;;-142.11;100.00
14800;BME280;7491;57.750;11.970;2023-05-19T06:03:19;77138.22;;;-142.11;100.00
14800;BME280;7491;57.750;11.970;2023-05-19T06:05:58;77107.63;;;-142.11;100.00
14800;BME280;7491;57.750;11.970;2023-05-19T06:08:25;77097.44;;;-142.11;100.00
14800;BME280;7491;57.750;11.970;2023-05-19T06:10:52;77075.00;;;-142.11;100.00
14800;BME280;7491;57.750;11.970;2023-05-19T06:13:19;77072.97;;;-142.11;100.00
14800;BME280;7491;57.750;11.970;2023-05-19T06:15:50;77058.69;;;-142.11;100.00
14800;BME280;7491;57.750;11.970;2023-05-19T06:18:17;77044.41;;;-142.11;100.00
14800;BME280;7491;57.750;11.970;2023-05-19T06:20:43;77026.06;;;-142.11;100.00
14800;BME280;7491;57.750;11.970;2023-05-19T06:23:10;77009.75;;;-142.11;100.00
14800;BME280;7491;57.750;11.970;2023-05-19T06:25:37;77001.59;;;-142.11;100.00
14800;BME280;7491;57.750;11.970;2023-05-19T06:28:03;76985.28;;;-142.11;100.00
14800;BME280;7491;57.750;11.970;2023-05-19T06:30:30;76960.81;;;-142.11;100.00
14800;BME280;7491;57.750;11.970;2023-05-19T06:32:58;76932.28;;;-142.11;100.00
14800;BME280;7491;57.750;11.970;2023-05-19T06:35:25;76920.03;;;-142.11;100.00
14800;BME280;7491;57.750;11.970;2023-05-19T06:37:52;76895.56;;;-142.11;100.00
14800;BME280;7491;57.750;11.970;2023-05-19T06:40:20;76862.94;;;-142.11;100.00
14800;BME280;7491;57.750;11.970;2023-05-19T06:42:46;76842.56;;;-142.11;100.00
14800;BME280;7491;57.750;11.970;2023-05-19T06:45:13;76830.31;;;-142.11;100.00
14800;BME280;7491;57.750;11.970;2023-05-19T06:47:40;76789.53;;;-142.11;100.00
14800;BME280;7491;57.750;11.970;2023-05-19T06:50:11;76754.88;;;-142.11;100.00
14800;BME280;7491;57.750;11.970;2023-05-19T06:52:38;76748.75;;;-142.11;100.00
14800;BME280;7491;57.750;11.970;2023-05-19T06:55:05;76740.63;;;-142.11;100.00
14800;BME280;7491;57.750;11.970;2023-05-19T06:57:32;76718.19;;;-142.11;100.00
14800;BME280;7491;57.750;11.970;2023-05-19T06:59:58;76679.44;;;-142.11;100.00
14800;BME280;7491;57.750;11.970;2023-05-19T07:02:25;76640.72;;;-142.11;100.00
14800;BME280;7491;57.750;11.970;2023-05-19T07:04:52;76610.13;;;-142.11;100.00
14800;BME280;7491;57.750;11.970;2023-05-19T07:07:20;76601.97;;;-142.11;100.00
14800;BME280;7491;57.750;11.970;2023-05-19T07:09:46;76575.47;;;-142.11;100.00
14800;BME280;7491;57.750;11.970;2023-05-19T07:12:13;76585.66;;;-142.11;100.00
14800;BME280;7491;57.750;11.970;2023-05-19T07:14:40;76595.84;;;-142.11;100.00
14800;BME280;7491;57.750;11.970;2023-05-19T07:17:07;76622.34;;;-142.11;100.00
14800;BME280;7491;57.750;11.970;2023-05-19T07:19:33;76618.28;;;-142.11;100.00
14800;BME280;7491;57.750;11.970;2023-05-19T07:22:00;76599.94;;;-142.11;100.00
14800;BME280;7491;57.750;11.970;2023-05-19T07:24:28;76579.53;;;-142.11;100.00
14800;BME280;7491;57.750;11.970;2023-05-19T07:26:55;76571.38;;;-142.11;100.00
14800;BME280;7491;57.750;11.970;2023-05-19T07:29:22;76567.31;;;-142.11;100.00
14800;BME280;7491;57.750;11.970;2023-05-19T07:31:49;76567.31;;;-142.11;100.00
14800;BME280;7491;57.750;11.970;2023-05-19T07:34:18;76518.38;;;-142.11;100.00
14800;BME280;7491;57.750;11.970;2023-05-19T07:36:46;76502.06;;;-142.11;100.00
14800;BME280;7491;57.750;11.970;2023-05-19T07:39:13;76483.72;;;-142.11;100.00
14800;BME280;7491;57.750;11.970;2023-05-19T07:41:41;76475.56;;;-142.11;100.00
14800;BME280;7491;57.750;11.970;2023-05-19T07:44:07;76485.75;;;-142.11;100.00
14800;BME280;7491;57.750;11.970;2023-05-19T07:46:35;76502.06;;;-142.11;100.00
14800;BME280;7491;57.750;11.970;2023-05-19T07:49:02;76493.91;;;-142.11;100.00
14800;BME280;7491;57.750;11.970;2023-05-19T07:51:28;76512.28;;;-142.11;100.00
14800;BME280;7491;57.750;11.970;2023-05-19T07:53:55;76540.81;;;-142.11;100.00
14800;BME280;7491;57.750;11.970;2023-05-19T07:56:22;76587.69;;;-142.11;100.00
14800;BME280;7491;57.750;11.970;2023-05-19T07:58:51;76597.91;;;-142.11;100.00
14800;BME280;7491;57.750;11.970;2023-05-19T08:01:18;76589.75;;;-142.11;100.00
14800;BME280;7491;57.750;11.970;2023-05-19T08:03:44;76563.25;;;-142.11;100.00
14800;BME280;7491;57.750;11.970;2023-05-19T08:06:11;76581.59;;;-142.11;100.00
14800;BME280;7491;57.750;11.970;2023-05-19T08:08:38;76595.84;;;-142.11;100.00
14800;BME280;7491;57.750;11.970;2023-05-19T08:11:04;76583.63;;;-142.11;100.00
14800;BME280;7491;57.750;11.970;2023-05-19T08:13:32;76571.38;;;-142.11;100.00
14800;BME280;7491;57.750;11.970;2023-05-19T08:16:00;76585.66;;;-142.11;100.00
14800;BME280;7491;57.750;11.970;2023-05-19T08:18:27;76546.94;;;-142.11;100.00
14800;BME280;7491;57.750;11.970;2023-05-19T08:20:54;76563.25;;;-142.11;100.00
14800;BME280;7491;57.750;11.970;2023-05-19T08:23:20;76557.13;;;-142.11;100.00
14800;BME280;7491;57.750;11.970;2023-05-19T08:25:47;76540.81;;;-142.11;100.00
14800;BME280;7491;57.750;11.970;2023-05-19T08:28:14;76546.94;;;-142.11;100.00
14800;BME280;7491;57.750;11.970;2023-05-19T08:30:41;76559.16;;;-142.11;100.00
14800;BME280;7491;57.750;11.970;2023-05-19T08:33:09;76567.31;;;-142.11;100.00
14800;BME280;7491;57.750;11.970;2023-05-19T08:35:36;76571.38;;;-142.11;100.00
14800;BME280;7491;57.750;11.970;2023-05-19T08:38:02;76557.13;;;-142.11;100.00
14800;BME280;7491;57.750;11.970;2023-05-19T08:40:29;76577.50;;;-142.11;100.00
14800;BME280;7491;57.750;11.970;2023-05-19T08:42:57;76577.50;;;-142.11;100.00
14800;BME280;7491;57.750;11.970;2023-05-19T08:45:23;76567.31;;;-142.11;100.00
14800;BME280;7491;57.750;11.970;2023-05-19T08:47:50;76546.94;;;-142.11;100.00
14800;BME280;7491;57.750;11.970;2023-05-19T08:50:23;76514.31;;;-142.11;100.00
14800;BME280;7491;57.750;11.970;2023-05-19T08:52:58;76534.69;;;-142.11;100.00
14800;BME280;7491;57.750;11.970;2023-05-19T08:55:30;76536.72;;;-142.11;100.00
14800;BME280;7491;57.750;11.970;2023-05-19T08:58:00;76542.84;;;-142.11;100.00
14800;BME280;7491;57.750;11.970;2023-05-19T09:00:27;76546.94;;;-142.11;100.00
14800;BME280;7491;57.750;11.970;2023-05-19T09:02:55;76544.88;;;-142.11;100.00
14800;BME280;7491;57.750;11.970;2023-05-19T09:05:23;76528.56;;;-142.11;100.00
14800;BME280;7491;57.750;11.970;2023-05-19T09:07:50;76538.78;;;-142.11;100.00
14800;BME280;7491;57.750;11.970;2023-05-19T09:10:17;76542.84;;;-142.11;100.00
14800;BME280;7491;57.750;11.970;2023-05-19T09:12:45;76546.94;;;-142.11;100.00
14800;BME280;7491;57.750;11.970;2023-05-19T09:15:15;76528.56;;;-142.11;100.00
14800;BME280;7491;57.750;11.970;2023-05-19T09:17:44;76520.41;;;-142.11;100.00
14800;BME280;7491;57.750;11.970;2023-05-19T09:20:12;76530.63;;;-142.11;100.00
14800;BME280;7491;57.750;11.970;2023-05-19T09:22:42;76526.53;;;-142.11;100.00
14800;BME280;7491;57.750;11.970;2023-05-19T09:25:18;76524.50;;;-142.11;100.00
14800;BME280;7491;57.750;11.970;2023-05-19T09:27:45;76498.00;;;-142.11;100.00
14800;BME280;7491;57.750;11.970;2023-05-19T09:30:14;76469.44;;;-142.11;100.00
14800;BME280;7491;57.750;11.970;2023-05-19T09:32:41;76467.41;;;-142.11;100.00
14800;BME280;7491;57.750;11.970;2023-05-19T09:35:08;76420.53;;;-142.11;100.00
14800;BME280;7491;57.750;11.970;2023-05-19T09:37:38;76398.09;;;-142.11;100.00
14800;BME280;7491;57.750;11.970;2023-05-19T09:40:08;76442.94;;;-142.11;100.00
14800;BME280;7491;57.750;11.970;2023-05-19T09:42:36;76418.50;;;-142.11;100.00
14800;BME280;7491;57.750;11.970;2023-05-19T09:45:04;76410.34;;;-142.11;100.00
14800;BME280;7491;57.750;11.970;2023-05-19T09:47:34;76434.78;;;-142.11;100.00
14800;BME280;7491;57.750;11.970;2023-05-19T09:50:04;76447.03;;;-142.11;100.00
14800;BME280;7491;57.750;11.970;2023-05-19T09:52:33;76455.19;;;-142.11;100.00
14800;BME280;7491;57.750;11.970;2023-05-19T09:55:00;76479.66;;;-142.11;100.00
14800;BME280;7491;57.750;11.970;2023-05-19T09:57:32;76479.66;;;-142.11;100.00
14800;BME280;7491;57.750;11.970;2023-05-19T10:00:02;76479.66;;;-142.11;100.00
14800;BME280;7491;57.750;11.970;2023-05-19T10:02:35;76465.38;;;-142.11;100.00
14800;BME280;7491;57.750;11.970;2023-05-19T10:05:03;76442.94;;;-142.11;100.00
14800;BME280;7491;57.750;11.970;2023-05-19T10:07:30;76432.75;;;-142.11;100.00
14800;BME280;7491;57.750;11.970;2023-05-19T10:09:58;76440.91;;;-142.11;100.00
14800;BME280;7491;57.750;11.970;2023-05-19T10:12:26;76457.22;;;-142.11;100.00
14800;BME280;7491;57.750;11.970;2023-05-19T10:14:54;76457.22;;;-142.11;100.00
14800;BME280;7491;57.750;11.970;2023-05-19T10:17:23;76438.88;;;-142.11;100.00
14800;BME280;7491;57.750;11.970;2023-05-19T10:19:51;76434.78;;;-142.11;100.00
14800;BME280;7491;57.750;11.970;2023-05-19T10:22:19;76449.06;;;-142.11;100.00
14800;BME280;7491;57.750;11.970;2023-05-19T10:24:46;76459.25;;;-142.11;100.00
14800;BME280;7491;57.750;11.970;2023-05-19T10:27:13;76430.72;;;-142.11;100.00
14800;BME280;7491;57.750;11.970;2023-05-19T10:29:46;76402.19;;;-142.11;100.00
14800;BME280;7491;57.750;11.970;2023-05-19T10:32:18;76410.34;;;-142.11;100.00
14800;BME280;7491;57.750;11.970;2023-05-19T10:35:08;76428.69;;;-142.11;100.00
14800;BME280;7491;57.750;11.970;2023-05-19T10:37:43;76451.09;;;-142.11;100.00
14800;BME280;7491;57.750;11.970;2023-05-19T10:40:17;76414.41;;;-142.11;100.00
14800;BME280;7491;57.750;11.970;2023-05-19T10:42:55;76410.34;;;-142.11;100.00
14800;BME280;7491;57.750;11.970;2023-05-19T10:45:27;76420.53;;;-142.11;100.00
14800;BME280;7491;57.750;11.970;2023-05-19T10:47:57;76387.91;;;-142.11;100.00
14800;BME280;7491;57.750;11.970;2023-05-19T10:50:24;76363.44;;;-142.11;100.00
14800;BME280;7491;57.750;11.970;2023-05-19T10:52:52;76385.88;;;-142.11;100.00
14800;BME280;7491;57.750;11.970;2023-05-19T10:55:44;76383.84;;;-142.11;100.00
14800;BME280;7491;57.750;11.970;2023-05-19T10:58:12;76373.63;;;-142.11;100.00
14800;BME280;7491;57.750;11.970;2023-05-19T11:00:39;76387.91;;;-142.11;99.73
14800;BME280;7491;57.750;11.970;2023-05-19T11:03:13;76402.19;;;-142.11;100.00
14800;BME280;7491;57.750;11.970;2023-05-19T11:05:41;76369.56;;;-142.11;100.00
14800;BME280;7491;57.750;11.970;2023-05-19T11:08:10;76349.19;;;-142.11;100.00
14800;BME280;7491;57.750;11.970;2023-05-19T11:10:37;76345.09;;;-142.11;100.00
14800;BME280;7491;57.750;11.970;2023-05-19T11:13:04;76361.41;;;-142.11;100.00
14800;BME280;7491;57.750;11.970;2023-05-19T11:15:33;76351.22;;;-142.11;100.00
14800;BME280;7491;57.750;11.970;2023-05-19T11:18:01;76345.09;;;-142.11;100.00
14800;BME280;7491;57.750;11.970;2023-05-19T11:20:29;76367.53;;;-142.11;99.21
14800;BME280;7491;57.750;11.970;2023-05-19T11:23:06;76371.59;;;-142.11;99.17
14800;BME280;7491;57.750;11.970;2023-05-19T11:25:43;76389.94;;;-142.11;98.67
14800;BME280;7491;57.750;11.970;2023-05-19T11:28:11;76404.22;;;-142.11;98.33
14800;BME280;7491;57.750;11.970;2023-05-19T11:30:40;76391.97;;;-142.11;98.19
14800;BME280;7491;57.750;11.970;2023-05-19T11:33:08;76385.88;;;-142.11;98.88
14800;BME280;7491;57.750;11.970;2023-05-19T11:35:36;76373.63;;;-142.11;97.94
14800;BME280;7491;57.750;11.970;2023-05-19T11:38:04;76373.63;;;-142.11;97.01
14800;BME280;7491;57.750;11.970;2023-05-19T11:40:31;76365.47;;;-142.11;97.30
14800;BME280;7491;57.750;11.970;2023-05-19T11:42:58;76338.97;;;-142.11;97.05
14800;BME280;7491;57.750;11.970;2023-05-19T11:45:27;76332.88;;;-142.11;97.87
14800;BME280;7491;57.750;11.970;2023-05-19T11:47:54;76306.38;;;-142.11;96.70
14800;BME280;7491;57.750;11.970;2023-05-19T11:50:21;76326.75;;;-142.11;95.18
14800;BME280;7491;57.750;11.970;2023-05-19T11:52:50;76332.88;;;-142.11;95.54
14800;BME280;7491;57.750;11.970;2023-05-19T11:55:18;76320.63;;;-142.11;94.98
14800;BME280;7491;57.750;11.970;2023-05-19T11:57:59;76341.03;;;-142.11;94.15
14800;BME280;7491;57.750;11.970;2023-05-19T12:00:28;76336.94;;;-142.11;95.31
14800;BME280;7491;57.750;11.970;2023-05-19T12:02:56;76330.81;;;-142.11;94.39
14800;BME280;7491;57.750;11.970;2023-05-19T12:05:24;76326.75;;;-142.11;94.38
14800;BME280;7491;57.750;11.970;2023-05-19T12:07:52;76332.88;;;-142.11;93.79
14800;BME280;7491;57.750;11.970;2023-05-19T12:10:21;76314.53;;;-142.11;94.13
14800;BME280;7491;57.750;11.970;2023-05-19T12:12:49;76310.44;;;-142.11;93.32
14800;BME280;7491;57.750;11.970;2023-05-19T12:15:17;76304.31;;;-142.11;93.06
14800;BME280;7491;57.750;11.970;2023-05-19T12:17:45;76294.13;;;-142.11;92.80
14800;BME280;7491;57.750;11.970;2023-05-19T12:20:14;76279.88;;;-142.11;93.79
14800;BME280;7491;57.750;11.970;2023-05-19T12:22:41;76281.91;;;-142.11;92.16
14800;BME280;7491;57.750;11.970;2023-05-19T12:25:12;76300.25;;;-142.11;92.32
14800;BME280;7491;57.750;11.970;2023-05-19T12:27:41;76281.91;;;-142.11;92.30
14800;BME280;7491;57.750;11.970;2023-05-19T12:30:09;76261.50;;;-142.11;93.00
14800;BME280;7491;57.750;11.970;2023-05-19T12:32:37;76245.22;;;-142.11;93.20
14800;BME280;7491;57.750;11.970;2023-05-19T12:35:05;76283.94;;;-142.11;90.56
14800;BME280;7491;57.750;11.970;2023-05-19T12:37:32;76296.16;;;-142.11;90.80
14800;BME280;7491;57.750;11.970;2023-05-19T12:40:00;76294.13;;;-142.11;90.56
14800;BME280;7491;57.750;11.970;2023-05-19T12:42:29;76288.03;;;-142.11;91.60
14800;BME280;7491;57.750;11.970;2023-05-19T12:44:57;76285.97;;;-142.11;91.31
14800;BME280;7491;57.750;11.970;2023-05-19T12:47:29;76271.72;;;-142.11;91.28
14800;BME280;7491;57.750;11.970;2023-05-19T12:50:00;76257.44;;;-142.11;90.10
14800;BME280;7491;57.750;11.970;2023-05-19T12:52:28;76257.44;;;-142.11;89.66
14800;BME280;7491;57.750;11.970;2023-05-19T12:54:57;76255.41;;;-142.11;89.87
14800;BME280;7491;57.750;11.970;2023-05-19T12:57:24;76269.66;;;-142.11;89.53
14800;BME280;7491;57.750;11.970;2023-05-19T12:59:52;76253.38;;;-142.11;89.60
14800;BME280;7491;57.750;11.970;2023-05-19T13:02:19;76269.66;;;-142.11;89.00
14800;BME280;7491;57.750;11.970;2023-05-19T13:04:46;76269.66;;;-142.11;89.60